createdAt,value
2018-02-18T00:02:01.789Z,46.60
2018-02-18T00:04:28.159Z,41.47
2018-02-18T00:06:54.393Z,44.60
2018-02-18T00:09:20.569Z,47.63
2018-02-18T00:11:47.459Z,49.20
2018-02-18T00:14:15.555Z,45.47
2018-02-18T00:16:42.566Z,46.90
2018-02-18T00:19:08.790Z,53.20
2018-02-18T00:21:34.988Z,40.20
2018-02-18T00:24:01.195Z,37.77
2018-02-18T00:26:27.612Z,39.03
2018-02-18T00:28:53.784Z,40.30
2018-02-18T00:31:20.054Z,38.87
2018-02-18T00:33:46.213Z,38.33
2018-02-18T00:36:12.444Z,54.70
2018-02-18T00:38:38.627Z,40.33
2018-02-18T00:41:04.849Z,44.37
2018-02-18T00:43:31.034Z,44.13
2018-02-18T00:45:57.304Z,42.90
2018-02-18T00:48:23.495Z,39.87
2018-02-18T00:50:49.747Z,46.50
2018-02-18T00:53:15.958Z,50.03
2018-02-18T00:55:42.173Z,51.97
2018-02-18T00:58:09.147Z,48.73
2018-02-18T01:00:35.548Z,42.40
2018-02-18T01:03:01.762Z,37.23
2018-02-18T01:05:28.011Z,49.57
2018-02-18T01:07:54.429Z,37.83
2018-02-18T01:10:20.720Z,42.50
2018-02-18T01:12:46.954Z,42.23
2018-02-18T01:15:13.407Z,49.10
2018-02-18T01:17:39.629Z,42.33
2018-02-18T01:20:05.830Z,39.80
2018-02-18T01:22:32.150Z,44.50
2018-02-18T01:24:58.430Z,48.70
2018-02-18T01:27:24.684Z,39.90
2018-02-18T01:29:50.989Z,47.97
2018-02-18T01:32:17.210Z,44.67
2018-02-18T01:34:43.444Z,48.60
2018-02-18T01:37:09.845Z,46.60
2018-02-18T01:39:36.069Z,44.22
2018-02-18T01:42:03.051Z,42.60
2018-02-18T01:44:29.287Z,53.77
2018-02-18T01:46:55.596Z,42.03
2018-02-18T01:49:21.844Z,44.63
2018-02-18T01:51:48.028Z,41.30
2018-02-18T01:54:14.341Z,44.20
2018-02-18T01:56:40.545Z,40.23
2018-02-18T01:59:06.797Z,39.23
2018-02-18T02:01:34.577Z,43.50
2018-02-18T02:04:01.657Z,42.03
2018-02-18T02:06:27.977Z,38.57
2018-02-18T02:08:54.933Z,47.60
2018-02-18T02:11:21.992Z,44.80
2018-02-18T02:13:49.072Z,36.40
2018-02-18T02:16:15.290Z,45.17
2018-02-18T02:18:42.220Z,38.47
2018-02-18T02:21:08.482Z,47.57
2018-02-18T02:23:35.444Z,45.22
2018-02-18T02:26:02.396Z,50.13
2018-02-18T02:28:28.608Z,37.60
2018-02-18T02:30:54.985Z,45.13
2018-02-18T02:33:21.233Z,57.87
2018-02-18T02:35:47.437Z,45.67
2018-02-18T02:38:13.947Z,39.60
2018-02-18T02:40:40.120Z,45.80
2018-02-18T02:43:06.356Z,51.87
2018-02-18T02:45:33.730Z,41.77
2018-02-18T02:47:59.931Z,48.83
2018-02-18T02:50:26.145Z,40.10
2018-02-18T02:52:53.078Z,39.13
2018-02-18T02:55:19.434Z,43.87
2018-02-18T02:57:45.621Z,45.10
2018-02-18T03:00:11.824Z,42.10
2018-02-18T03:02:38.198Z,38.37
2018-02-18T03:05:04.372Z,47.37
2018-02-18T03:07:30.583Z,41.83
2018-02-18T03:09:57.104Z,40.73
2018-02-18T03:12:23.336Z,46.47
2018-02-18T03:14:49.517Z,38.47
2018-02-18T03:17:16.020Z,49.47
2018-02-18T03:19:42.229Z,45.23
2018-02-18T03:22:08.411Z,45.70
2018-02-18T03:24:35.322Z,39.53
2018-02-18T03:27:01.528Z,44.20
2018-02-18T03:29:27.836Z,40.37
2018-02-18T03:31:54.344Z,50.03
2018-02-18T03:34:20.592Z,43.97
2018-02-18T03:36:47.588Z,44.73
2018-02-18T03:39:13.825Z,37.67
2018-02-18T03:41:40.215Z,40.83
2018-02-18T03:44:06.432Z,42.17
2018-02-18T03:46:33.454Z,49.97
2018-02-18T03:49:00.745Z,44.93
2018-02-18T03:51:27.844Z,47.00
2018-02-18T03:53:54.116Z,42.20
2018-02-18T03:56:20.330Z,50.13
2018-02-18T03:58:46.713Z,44.43
2018-02-18T04:01:12.972Z,43.40
2018-02-18T04:03:39.179Z,45.80
2018-02-18T04:06:05.985Z,37.40
2018-02-18T04:08:33.153Z,58.33
2018-02-18T04:10:59.376Z,42.90
2018-02-18T04:13:25.597Z,52.80
2018-02-18T04:15:53.025Z,51.13
2018-02-18T04:18:19.256Z,43.13
2018-02-18T04:20:45.441Z,45.17
2018-02-18T04:23:11.709Z,47.07
2018-02-18T04:25:37.885Z,49.70
2018-02-18T04:28:04.125Z,53.00
2018-02-18T04:30:30.419Z,40.43
2018-02-18T04:32:56.658Z,48.73
2018-02-18T04:35:23.602Z,46.57
2018-02-18T04:37:49.866Z,38.95
2018-02-18T04:40:16.531Z,50.43
2018-02-18T04:42:42.781Z,46.53
2018-02-18T04:45:09.745Z,49.53
2018-02-18T04:47:36.113Z,62.13
2018-02-18T04:50:02.329Z,44.50
2018-02-18T04:52:28.545Z,45.92
2018-02-18T04:54:55.489Z,40.33
2018-02-18T04:57:21.968Z,50.70
2018-02-18T04:59:48.358Z,46.97
2018-02-18T05:02:14.556Z,44.60
2018-02-18T05:04:41.607Z,44.00
2018-02-18T05:07:10.373Z,41.30
2018-02-18T05:09:36.608Z,42.67
2018-02-18T05:12:02.883Z,41.57
2018-02-18T05:14:29.097Z,46.33
2018-02-18T05:16:55.306Z,43.78
2018-02-18T05:19:21.541Z,49.50
2018-02-18T05:21:47.941Z,41.17
2018-02-18T05:24:14.381Z,47.17
2018-02-18T05:26:40.620Z,45.83
2018-02-18T05:29:06.832Z,45.75
2018-02-18T05:31:33.404Z,40.97
2018-02-18T05:33:59.665Z,42.25
2018-02-18T05:36:25.848Z,46.93
2018-02-18T05:38:52.261Z,42.37
2018-02-18T05:41:19.218Z,41.77
2018-02-18T05:43:45.456Z,47.63
2018-02-18T05:46:12.665Z,62.43
2018-02-18T05:48:39.112Z,57.67
2018-02-18T05:51:05.361Z,39.15
2018-02-18T05:53:32.342Z,44.50
2018-02-18T05:55:58.695Z,42.00
2018-02-18T05:58:25.698Z,52.97
2018-02-18T06:00:51.889Z,40.40
2018-02-18T06:03:18.177Z,48.85
2018-02-18T06:05:44.529Z,44.85
2018-02-18T06:08:10.767Z,50.33
2018-02-18T06:10:36.975Z,56.43
2018-02-18T06:13:03.499Z,46.20
2018-02-18T06:15:29.679Z,46.40
2018-02-18T06:17:55.884Z,43.70
2018-02-18T06:20:22.242Z,44.60
2018-02-18T06:22:48.492Z,43.97
2018-02-18T06:25:15.524Z,61.67
2018-02-18T06:27:41.944Z,57.10
2018-02-18T06:30:08.147Z,52.37
2018-02-18T06:32:35.626Z,51.60
2018-02-18T06:35:03.936Z,47.97
2018-02-18T06:37:33.650Z,41.10
2018-02-18T06:40:00.900Z,41.97
2018-02-18T06:42:27.176Z,46.25
2018-02-18T06:44:54.546Z,47.95
2018-02-18T06:47:20.745Z,44.37
2018-02-18T06:49:47.698Z,54.47
2018-02-18T06:52:16.060Z,45.80
2018-02-18T06:54:42.454Z,53.70
2018-02-18T06:57:08.864Z,58.40
2018-02-18T06:59:35.197Z,59.08
2018-02-18T07:02:01.502Z,52.90
2018-02-18T07:04:27.849Z,59.30
2018-02-18T07:06:54.329Z,52.92
2018-02-18T07:09:20.589Z,55.30
2018-02-18T07:11:47.067Z,48.20
2018-02-18T07:14:13.337Z,44.33
2018-02-18T07:16:39.636Z,80.10
2018-02-18T07:19:06.004Z,53.13
2018-02-18T07:21:32.643Z,86.87
2018-02-18T07:24:00.006Z,62.97
2018-02-18T07:26:26.257Z,57.23
2018-02-18T07:28:52.552Z,67.13
2018-02-18T07:31:18.767Z,78.07
2018-02-18T07:33:44.955Z,73.37
2018-02-18T07:36:11.366Z,80.93
2018-02-18T07:38:37.565Z,73.67
2018-02-18T07:41:03.769Z,66.50
2018-02-18T07:43:30.268Z,68.83
2018-02-18T07:45:56.468Z,75.83
2018-02-18T07:48:22.689Z,67.47
2018-02-18T07:50:49.125Z,73.97
2018-02-18T07:53:15.372Z,63.77
2018-02-18T07:55:41.581Z,81.27
2018-02-18T07:58:08.614Z,75.63
2018-02-18T08:00:34.808Z,69.73
2018-02-18T08:03:01.044Z,63.83
2018-02-18T08:05:27.280Z,77.30
2018-02-18T08:07:53.529Z,77.37
2018-02-18T08:10:19.718Z,85.18
2018-02-18T08:12:46.232Z,78.87
2018-02-18T08:15:12.549Z,74.47
2018-02-18T08:17:38.841Z,79.87
2018-02-18T08:20:05.768Z,77.67
2018-02-18T08:22:33.674Z,83.10
2018-02-18T08:24:59.973Z,77.00
2018-02-18T08:27:26.163Z,80.50
2018-02-18T08:29:52.412Z,92.03
2018-02-18T08:32:18.895Z,74.93
2018-02-18T08:34:45.190Z,87.70
2018-02-18T08:37:11.937Z,83.60
2018-02-18T08:39:39.043Z,84.00
2018-02-18T08:42:05.294Z,80.23
2018-02-18T08:44:31.559Z,74.83
2018-02-18T08:46:57.963Z,78.00
2018-02-18T08:49:24.153Z,78.70
2018-02-18T08:51:50.325Z,70.73
2018-02-18T08:54:17.305Z,90.87
2018-02-18T08:56:43.764Z,83.80
2018-02-18T08:59:09.960Z,77.63
2018-02-18T09:01:37.075Z,91.70
2018-02-18T09:04:03.526Z,76.00
2018-02-18T09:06:29.769Z,72.33
2018-02-18T09:08:55.991Z,69.90
2018-02-18T09:11:22.402Z,78.20
2018-02-18T09:13:48.799Z,64.03
2018-02-18T09:16:15.001Z,71.17
2018-02-18T09:18:41.217Z,74.70
2018-02-18T09:21:07.504Z,70.17
2018-02-18T09:23:33.689Z,75.33
2018-02-18T09:26:00.038Z,79.47
2018-02-18T09:28:27.653Z,70.37
2018-02-18T09:30:53.955Z,69.07
2018-02-18T09:33:21.132Z,73.40
2018-02-18T09:35:47.427Z,69.57
2018-02-18T09:38:13.868Z,69.20
2018-02-18T09:40:40.086Z,79.00
2018-02-18T09:43:06.349Z,64.90
2018-02-18T09:45:33.478Z,73.47
2018-02-18T09:47:59.651Z,74.83
2018-02-18T09:50:25.844Z,71.63
2018-02-18T09:52:52.192Z,75.43
2018-02-18T09:55:18.394Z,77.80
2018-02-18T09:57:44.550Z,79.43
2018-02-18T10:00:11.485Z,70.37
2018-02-18T10:02:37.807Z,72.70
2018-02-18T10:05:04.008Z,67.90
2018-02-18T10:07:30.196Z,76.43
2018-02-18T10:09:56.527Z,66.70
2018-02-18T10:12:22.730Z,68.27
2018-02-18T10:14:48.997Z,64.23
2018-02-18T10:17:15.638Z,67.57
2018-02-18T10:19:41.835Z,61.17
2018-02-18T10:22:08.027Z,61.43
2018-02-18T10:24:35.478Z,61.30
2018-02-18T10:27:01.693Z,68.80
2018-02-18T10:29:29.790Z,63.10
2018-02-18T10:31:56.004Z,68.10
2018-02-18T10:34:22.669Z,54.87
2018-02-18T10:36:48.953Z,58.17
2018-02-18T10:39:15.189Z,61.17
2018-02-18T10:41:41.509Z,54.47
2018-02-18T10:44:08.481Z,53.87
2018-02-18T10:46:34.733Z,56.17
2018-02-18T10:49:02.738Z,54.27
2018-02-18T10:51:31.417Z,62.77
2018-02-18T10:53:58.184Z,57.70
2018-02-18T10:56:24.555Z,55.90
2018-02-18T10:58:51.578Z,51.60
2018-02-18T11:01:18.568Z,63.57
2018-02-18T11:03:45.313Z,56.73
2018-02-18T11:06:11.721Z,48.80
2018-02-18T11:08:38.021Z,44.80
2018-02-18T11:11:04.224Z,46.03
2018-02-18T11:13:30.844Z,41.60
2018-02-18T11:15:57.315Z,47.87
2018-02-18T11:18:23.551Z,45.10
2018-02-18T11:20:49.897Z,44.20
2018-02-18T11:23:16.282Z,45.30
2018-02-18T11:25:42.972Z,48.97
2018-02-18T11:28:09.878Z,39.53
2018-02-18T11:30:37.345Z,45.70
2018-02-18T11:33:03.711Z,45.33
2018-02-18T11:35:33.112Z,50.37
2018-02-18T11:37:59.264Z,45.37
2018-02-18T11:40:25.801Z,43.87
2018-02-18T11:42:52.343Z,50.97
2018-02-18T11:45:18.589Z,48.00
2018-02-18T11:47:44.782Z,45.00
2018-02-18T11:50:11.121Z,43.87
2018-02-18T11:52:37.397Z,41.83
2018-02-18T11:55:03.579Z,41.47
2018-02-18T11:57:29.981Z,31.67
2018-02-18T11:59:57.077Z,41.80
2018-02-18T12:02:24.081Z,46.60
2018-02-18T12:04:50.334Z,35.73
2018-02-18T12:07:16.564Z,33.17
2018-02-18T12:09:42.979Z,39.13
2018-02-18T12:12:09.156Z,37.80
2018-02-18T12:14:35.833Z,40.43
2018-02-18T12:17:02.016Z,39.30
2018-02-18T12:19:29.092Z,42.90
2018-02-18T12:21:55.682Z,37.60
2018-02-18T12:24:21.893Z,28.47
2018-02-18T12:26:48.075Z,29.17
2018-02-18T12:29:14.473Z,33.87
2018-02-18T12:31:40.929Z,32.60
2018-02-18T12:34:07.220Z,37.37
2018-02-18T12:36:33.418Z,30.23
2018-02-18T12:38:59.840Z,33.87
2018-02-18T12:41:26.031Z,27.57
2018-02-18T12:43:52.240Z,34.27
2018-02-18T12:46:19.417Z,24.90
2018-02-18T12:48:45.613Z,30.83
2018-02-18T12:51:11.841Z,29.90
2018-02-18T12:53:38.080Z,23.23
2018-02-18T12:56:04.316Z,29.37
2018-02-18T12:58:30.625Z,24.10
2018-02-18T13:00:56.930Z,22.00
2018-02-18T13:03:23.307Z,30.77
2018-02-18T13:05:49.537Z,23.23
2018-02-18T13:08:15.806Z,25.03
2018-02-18T13:10:42.019Z,25.90
2018-02-18T13:13:08.219Z,30.80
2018-02-18T13:15:34.652Z,28.30
2018-02-18T13:18:00.853Z,31.00
2018-02-18T13:20:27.078Z,29.50
2018-02-18T13:22:53.469Z,29.63
2018-02-18T13:25:19.675Z,33.37
2018-02-18T13:27:46.001Z,24.33
2018-02-18T13:30:12.500Z,28.93
2018-02-18T13:32:40.800Z,28.90
2018-02-18T13:35:06.989Z,27.23
2018-02-18T13:37:33.181Z,27.83
2018-02-18T13:39:59.569Z,26.83
2018-02-18T13:42:25.759Z,26.77
2018-02-18T13:44:52.011Z,26.23
2018-02-18T13:47:18.297Z,20.73
2018-02-18T13:49:44.493Z,36.63
2018-02-18T13:52:10.689Z,21.33
2018-02-18T13:54:36.909Z,33.23
2018-02-18T13:57:03.110Z,26.53
2018-02-18T13:59:29.351Z,23.40
2018-02-18T14:01:55.559Z,22.70
2018-02-18T14:04:21.815Z,23.50
2018-02-18T14:06:48.155Z,23.80
2018-02-18T14:09:14.357Z,22.33
2018-02-18T14:11:40.583Z,19.70
2018-02-18T14:14:06.788Z,27.77
2018-02-18T14:16:33.282Z,24.70
2018-02-18T14:18:59.784Z,23.10
2018-02-18T14:21:25.981Z,18.80
2018-02-18T14:23:52.212Z,25.73
2018-02-18T14:26:19.496Z,19.87
2018-02-18T14:28:45.724Z,34.07
2018-02-18T14:31:11.954Z,23.37
2018-02-18T14:33:38.914Z,19.80
2018-02-18T14:36:05.423Z,23.07
2018-02-18T14:38:31.690Z,27.73
2018-02-18T14:40:58.611Z,22.20
2018-02-18T14:43:37.026Z,22.87
2018-02-18T14:46:15.403Z,24.73
2018-02-18T14:48:54.643Z,33.27
2018-02-18T14:51:33.107Z,27.70
2018-02-18T14:54:11.616Z,24.43
2018-02-18T14:56:50.748Z,18.03
2018-02-18T14:59:17.007Z,29.90
2018-02-18T15:01:43.196Z,21.60
2018-02-18T15:04:09.822Z,21.50
2018-02-18T15:06:36.021Z,28.30
2018-02-18T15:09:02.998Z,23.33
2018-02-18T15:11:29.244Z,24.73
2018-02-18T15:13:56.636Z,28.43
2018-02-18T15:16:22.871Z,28.77
2018-02-18T15:18:49.068Z,27.37
2018-02-18T15:21:16.210Z,26.97
2018-02-18T15:23:42.388Z,24.63
2018-02-18T15:26:08.580Z,22.63
2018-02-18T15:28:34.881Z,27.00
2018-02-18T15:31:01.112Z,24.87
2018-02-18T15:33:27.276Z,28.23
2018-02-18T15:35:54.399Z,28.00
2018-02-18T15:38:21.641Z,25.30
2018-02-18T15:40:47.885Z,26.53
2018-02-18T15:43:18.760Z,33.90
2018-02-18T15:45:45.721Z,24.73
2018-02-18T15:48:12.656Z,29.57
2018-02-18T15:50:39.640Z,34.23
2018-02-18T15:53:06.077Z,30.00
2018-02-18T15:55:35.142Z,38.73
2018-02-18T15:58:01.372Z,34.23
2018-02-18T16:00:27.633Z,112.47
2018-02-18T16:02:53.922Z,87.80
2018-02-18T16:05:21.078Z,52.00
2018-02-18T16:07:48.027Z,36.47
2018-02-18T16:10:14.213Z,35.20
2018-02-18T16:12:40.561Z,31.60
2018-02-18T16:15:06.772Z,30.10
2018-02-18T16:17:32.985Z,27.63
2018-02-18T16:19:59.380Z,28.93
2018-02-18T16:22:25.618Z,29.47
2018-02-18T16:24:51.796Z,31.10
2018-02-18T16:27:24.776Z,29.33
2018-02-18T16:29:50.997Z,29.53
2018-02-18T16:32:17.258Z,25.27
2018-02-18T16:34:43.548Z,29.90
2018-02-18T16:37:10.535Z,27.40
2018-02-18T16:39:36.744Z,39.23
2018-02-18T16:42:03.746Z,28.80
2018-02-18T16:44:31.409Z,33.30
2018-02-18T16:46:57.645Z,22.53
2018-02-18T16:49:23.852Z,29.73
2018-02-18T16:51:50.656Z,24.73
2018-02-18T16:54:17.679Z,34.87
2018-02-18T16:56:44.661Z,40.67
2018-02-18T16:59:10.856Z,25.83
2018-02-18T17:01:37.149Z,33.17
2018-02-18T17:04:03.379Z,28.47
2018-02-18T17:06:29.594Z,30.30
2018-02-18T17:08:56.092Z,27.53
2018-02-18T17:11:22.321Z,28.43
2018-02-18T17:13:48.530Z,25.40
2018-02-18T17:16:15.479Z,28.77
2018-02-18T17:18:41.719Z,29.07
2018-02-18T17:21:08.725Z,30.90
2018-02-18T17:23:34.904Z,32.77
2018-02-18T17:26:01.173Z,33.53
2018-02-18T17:28:28.105Z,30.83
2018-02-18T17:30:54.350Z,35.40
2018-02-18T17:33:20.714Z,32.50
2018-02-18T17:35:47.783Z,34.43
2018-02-18T17:38:13.985Z,32.80
2018-02-18T17:40:40.221Z,43.50
2018-02-18T17:43:07.219Z,35.30
2018-02-18T17:45:34.183Z,47.10
2018-02-18T17:48:01.149Z,44.83
2018-02-18T17:50:33.391Z,47.97
2018-02-18T17:52:59.640Z,36.13
2018-02-18T17:55:25.841Z,42.83
2018-02-18T17:57:52.385Z,39.30
2018-02-18T18:00:19.077Z,40.30
2018-02-18T18:02:46.066Z,32.77
2018-02-18T18:05:12.571Z,39.20
2018-02-18T18:07:38.956Z,33.60
2018-02-18T18:10:05.906Z,41.60
2018-02-18T18:12:32.829Z,36.90
2018-02-18T18:14:59.016Z,39.03
2018-02-18T18:17:25.217Z,39.83
2018-02-18T18:19:51.416Z,50.00
2018-02-18T18:22:17.728Z,39.57
2018-02-18T18:24:43.948Z,41.50
2018-02-18T18:27:11.205Z,39.00
2018-02-18T18:29:37.497Z,37.07
2018-02-18T18:32:03.960Z,46.60
2018-02-18T18:34:30.160Z,40.43
2018-02-18T18:36:57.109Z,34.53
2018-02-18T18:39:23.380Z,41.70
2018-02-18T18:41:49.672Z,35.40
2018-02-18T18:44:19.401Z,37.33
2018-02-18T18:46:45.692Z,34.80
2018-02-18T18:49:11.894Z,36.90
2018-02-18T18:51:38.841Z,46.30
2018-02-18T18:54:05.252Z,38.33
2018-02-18T18:56:33.553Z,43.43
2018-02-18T18:58:59.819Z,41.33
2018-02-18T19:01:27.168Z,37.03
2018-02-18T19:03:53.556Z,36.10
2018-02-18T19:06:20.500Z,38.07
2018-02-18T19:08:46.939Z,36.70
2018-02-18T19:11:13.334Z,34.87
2018-02-18T19:13:39.525Z,43.53
2018-02-18T19:16:06.178Z,46.23
2018-02-18T19:18:32.406Z,38.03
2018-02-18T19:20:58.633Z,60.13
2018-02-18T19:23:25.889Z,53.50
2018-02-18T19:25:52.165Z,42.17
2018-02-18T19:28:18.731Z,55.20
2018-02-18T19:30:45.718Z,50.07
2018-02-18T19:33:11.967Z,51.20
2018-02-18T19:35:38.190Z,48.30
2018-02-18T19:38:04.550Z,47.53
2018-02-18T19:40:30.852Z,44.17
2018-02-18T19:42:57.101Z,40.20
2018-02-18T19:45:23.478Z,48.47
2018-02-18T19:47:49.729Z,41.30
2018-02-18T19:50:15.916Z,42.13
2018-02-18T19:52:43.375Z,50.03
2018-02-18T19:55:09.556Z,46.63
2018-02-18T19:57:35.763Z,40.70
2018-02-18T20:00:02.155Z,47.20
2018-02-18T20:02:29.718Z,36.60
2018-02-18T20:04:56.158Z,42.03
2018-02-18T20:07:22.453Z,40.87
2018-02-18T20:09:49.721Z,42.60
2018-02-18T20:12:16.215Z,42.93
2018-02-18T20:14:42.439Z,36.87
2018-02-18T20:17:09.390Z,45.80
2018-02-18T20:19:35.794Z,72.43
2018-02-18T20:22:02.038Z,43.37
2018-02-18T20:24:28.373Z,45.03
2018-02-18T20:26:55.247Z,36.97
2018-02-18T20:29:22.607Z,38.73
2018-02-18T20:31:48.831Z,42.53
2018-02-18T20:34:15.053Z,35.03
2018-02-18T20:36:41.896Z,42.17
2018-02-18T20:39:08.272Z,42.57
2018-02-18T20:41:34.587Z,41.30
2018-02-18T20:44:01.310Z,42.90
2018-02-18T20:46:27.632Z,34.70
2018-02-18T20:48:53.861Z,38.83
2018-02-18T20:51:20.301Z,34.40
2018-02-18T20:53:46.877Z,44.10
2018-02-18T20:56:13.142Z,41.07
2018-02-18T20:58:39.491Z,35.73
2018-02-18T21:01:06.537Z,41.50
2018-02-18T21:03:32.900Z,44.50
2018-02-18T21:06:02.332Z,41.40
2018-02-18T21:08:31.634Z,39.50
2018-02-18T21:10:58.043Z,192.63
2018-02-18T21:13:37.359Z,43.03
2018-02-18T21:16:03.621Z,41.17
2018-02-18T21:18:29.850Z,70.73
2018-02-18T21:20:56.044Z,54.20
2018-02-18T21:23:23.128Z,43.10
2018-02-18T21:25:49.312Z,44.27
2018-02-18T21:28:15.515Z,48.97
2018-02-18T21:30:42.080Z,46.00
2018-02-18T21:33:08.274Z,69.27
2018-02-18T21:35:35.228Z,66.20
2018-02-18T21:38:02.479Z,74.13
2018-02-18T21:40:30.854Z,58.97
2018-02-18T21:42:57.225Z,60.30
2018-02-18T21:45:23.431Z,49.23
2018-02-18T21:47:49.637Z,42.13
2018-02-18T21:50:16.117Z,49.73
2018-02-18T21:52:42.312Z,47.67
2018-02-18T21:55:09.228Z,43.10
2018-02-18T21:57:35.523Z,52.87
2018-02-18T22:00:01.701Z,46.47
2018-02-18T22:02:27.910Z,48.57
2018-02-18T22:04:54.281Z,48.70
2018-02-18T22:07:20.460Z,46.40
2018-02-18T22:09:47.364Z,44.20
2018-02-18T22:12:13.575Z,39.90
2018-02-18T22:14:39.796Z,39.77
2018-02-18T22:17:06.773Z,37.47
2018-02-18T22:19:33.809Z,41.63
2018-02-18T22:22:00.133Z,39.30
2018-02-18T22:24:26.335Z,38.40
2018-02-18T22:26:52.529Z,39.10
2018-02-18T22:29:18.946Z,42.47
2018-02-18T22:31:45.197Z,45.27
2018-02-18T22:34:11.411Z,41.13
2018-02-18T22:36:37.817Z,43.67
2018-02-18T22:39:05.098Z,51.40
2018-02-18T22:41:32.016Z,45.70
2018-02-18T22:43:58.287Z,40.33
2018-02-18T22:46:24.705Z,43.60
2018-02-18T22:48:50.921Z,49.93
2018-02-18T22:51:17.120Z,37.50
2018-02-18T22:53:43.540Z,38.80
2018-02-18T22:56:09.813Z,37.70
2018-02-18T22:58:36.895Z,46.40
2018-02-18T23:01:03.092Z,42.27
2018-02-18T23:03:29.535Z,38.50
2018-02-18T23:05:55.711Z,40.80
2018-02-18T23:08:21.920Z,45.23
2018-02-18T23:10:48.633Z,40.80
2018-02-18T23:13:14.850Z,39.50
2018-02-18T23:15:41.008Z,46.20
2018-02-18T23:18:07.378Z,36.40
2018-02-18T23:20:45.684Z,49.23
2018-02-18T23:23:12.052Z,40.03
2018-02-18T23:25:38.220Z,34.63
2018-02-18T23:28:05.155Z,39.97
2018-02-18T23:30:32.453Z,36.23
2018-02-18T23:32:58.860Z,123.27
2018-02-18T23:35:25.046Z,40.27
2018-02-18T23:37:51.229Z,42.13
2018-02-18T23:40:17.705Z,37.17
2018-02-18T23:42:44.767Z,40.00
2018-02-18T23:45:11.715Z,38.67
2018-02-18T23:47:37.928Z,43.30
2018-02-18T23:50:04.419Z,33.53
2018-02-18T23:52:30.629Z,35.30
2018-02-18T23:54:56.800Z,36.83
2018-02-18T23:57:23.856Z,42.50
2018-02-18T23:59:50.168Z,44.33
